Aviation Digital Data Service (ADDS)

Output produced by METARs form (0741 UTC 20 October 2018)
found at http://www.aviationweather.gov/metar/data/
 
TAF COR MHSC 200232Z 1921/2103 36009KT 9000 -SHRA SCT030 BKN100 QNH2990INS 
     BECMG 1923/1924 VRB06KT 9999 NSW FEW060 BKN150 QNH2995INS 
     BECMG 2007/2008 VRB06KT 9999 SCT003 BKN150 QNH2998INS 
     BECMG 2015/2016 34009KT 9999 SCT100 BKN150 QNH2990INS 
     BECMG 2020/2021 36015G25KT 6000 -SHRA VCTS SCT020 BKN045CB QNH2991INS 
     BECMG 2100/2101 VRB06KT 9999 NSW SCT030 BKN100 QNH2997INS TX29/1922Z
TN23/2013Z LAST NO AMDS AFT 1902 NEXT 2213
       
TAF MHLC 200430Z 2006/2106 12006KT 8000 VCSH SCT024 BKN080 TX31/2017Z TN22/2012Z

     BECMG 2008/2010 14004KT 9999 NSW 
     BECMG 2014/2016 SCT028TCU 
     TEMPO 2020/2102 07012KT 6000 -TSRA SCT026CB SCT080 
     BECMG 2102/2104 5000 RA SCT024 BKN080
       
TAF MHLM 200430Z 2006/2106 08006KT 8000 VCSH SCT025 BKN080 TX32/2020Z TN23/2012Z

     BECMG 2008/2010 19004KT 9999 NSW FEW024 BKN080 
     BECMG 2014/2016 00000KT SCT028TCU SCT080 
     TEMPO 2020/2102 6000 TSRA SCT026CB SCT080 
     BECMG 2102/2104 04006KT FEW024CB BKN080
       
TAF MHRO 200430Z 2006/2106 10016KT 8000 VCSH SCT022 SCT080 TX30/2019Z TN27/2012Z

     BECMG 2010/2012 0906KT 8000 VCSH SCT020 SCT080 
     BECMG 2018/2020 07015KT 9999 NSW SCT024TCU BKN080
       
TAF MHTG 200430Z 2006/2106 01004KT 9999 BKN024 TX26/2019Z TN17/2012Z 
     BECMG 2012/2014 SCT028TCU 
     BECMG 2016/2018 8000 VCSH BKN028TCU 
     TEMPO 2020/2102 00000KT 6000 -TSRA SCT028CB SCT080 
     BECMG 2102/2104 03004KT 5000 RA SCT026CB BKN080